Time;durP1;ratioP1;P1;durP2;ratioP2;P2;SDS_P1;SDS_P2;PMS_P1;PMS_P2;Temp;Humidity;BMP_temperature;BMP_pressure;BME280_temperature;BME280_humidity;BME280_pressure;Samples;Min_cycle;Max_cycle;Signal;HPM_P1;HPM_P2
2023/08/17 00:00:18;;;;;;;21.65;8.50;;;;;;;19.25;87.55;100194.56;5027281;28;20037;-47
2023/08/17 00:02:44;;;;;;;20.58;8.50;;;;;;;19.24;87.65;100192.84;5022660;28;20037;-50
2023/08/17 00:05:11;;;;;;;21.02;7.78;;;;;;;19.24;88.02;100195.50;5020681;28;20053;-48
2023/08/17 00:07:38;;;;;;;15.77;8.00;;;;;;;19.22;88.33;100204.41;5029526;28;20045;-47
2023/08/17 00:10:04;;;;;;;18.80;7.88;;;;;;;19.06;88.38;100172.88;5022576;28;20049;-51
2023/08/17 00:12:30;;;;;;;18.80;8.45;;;;;;;18.98;88.56;100165.47;5028464;28;20037;-48
2023/08/17 00:14:56;;;;;;;21.35;8.18;;;;;;;19.03;88.89;100181.00;5011687;28;20136;-50
2023/08/17 00:17:22;;;;;;;21.60;8.50;;;;;;;19.02;88.77;100188.03;5024356;28;20207;-50
2023/08/17 00:19:49;;;;;;;17.83;7.90;;;;;;;19.13;89.04;100199.72;5024544;28;20579;-49
2023/08/17 00:22:15;;;;;;;18.55;7.75;;;;;;;19.10;89.09;100205.19;5029244;28;20424;-46
2023/08/17 00:24:44;;;;;;;21.13;8.88;;;;;;;19.09;89.50;100199.06;5027229;28;20061;-48
2023/08/17 00:27:10;;;;;;;18.63;8.10;;;;;;;19.08;89.71;100207.06;5020388;28;20083;-52
2023/08/17 00:29:37;;;;;;;18.40;8.68;;;;;;;19.05;89.71;100211.56;5025260;28;20049;-46
2023/08/17 00:32:03;;;;;;;18.52;8.77;;;;;;;19.05;89.85;100210.75;4996951;28;20555;-50
2023/08/17 00:34:29;;;;;;;19.38;9.07;;;;;;;19.04;90.27;100209.03;5026528;28;20510;-49
2023/08/17 00:36:55;;;;;;;21.10;8.68;;;;;;;19.01;90.13;100215.34;5050387;28;20072;-51
2023/08/17 00:39:21;;;;;;;17.90;8.20;;;;;;;18.99;90.29;100214.59;5029069;28;20045;-47
2023/08/17 00:41:47;;;;;;;17.80;8.52;;;;;;;18.98;90.55;100220.81;5022385;28;20084;-50
2023/08/17 00:44:13;;;;;;;22.90;9.30;;;;;;;18.96;90.62;100217.41;5025494;28;20088;-49
2023/08/17 00:46:39;;;;;;;18.77;8.35;;;;;;;18.94;90.86;100221.94;5028288;28;20067;-49
2023/08/17 00:49:06;;;;;;;20.77;8.00;;;;;;;18.93;91.12;100220.25;5025147;28;20501;-51
2023/08/17 00:51:33;;;;;;;22.63;9.20;;;;;;;18.74;91.34;100193.28;5026984;28;20068;-49
2023/08/17 00:54:01;;;;;;;27.48;9.32;;;;;;;18.91;91.44;100223.88;5010640;28;20049;-50
2023/08/17 00:56:27;;;;;;;14.07;8.20;;;;;;;18.90;91.50;100217.78;5027346;28;20049;-48
2023/08/17 00:58:54;;;;;;;18.20;8.57;;;;;;;18.89;91.76;100215.25;5008001;28;20106;-51
2023/08/17 01:01:20;;;;;;;19.58;8.77;;;;;;;18.74;91.83;100209.09;5027872;28;20513;-48
2023/08/17 01:03:46;;;;;;;20.42;8.77;;;;;;;18.87;91.99;100232.94;5027074;28;20053;-48
2023/08/17 01:06:13;;;;;;;16.77;8.43;;;;;;;18.84;92.03;100233.94;5026564;28;20083;-51
2023/08/17 01:08:40;;;;;;;20.30;8.50;;;;;;;18.82;92.15;100225.31;5010826;28;20065;-51
2023/08/17 01:11:24;;;;;;;20.80;9.20;;;;;;;18.81;92.58;100228.88;5028079;28;20068;-50
2023/08/17 01:14:01;;;;;;;24.65;9.20;;;;;;;18.52;92.46;100180.53;5007175;28;20460;-52
2023/08/17 01:16:30;;;;;;;17.08;8.60;;;;;;;18.75;92.65;100223.09;5028374;28;20045;-50
2023/08/17 01:18:59;;;;;;;16.17;8.10;;;;;;;18.61;92.70;100205.50;5006388;28;20132;-51
2023/08/17 01:21:30;;;;;;;18.33;9.20;;;;;;;18.70;92.99;100228.66;4993564;28;20810;-50
2023/08/17 01:23:59;;;;;;;22.15;8.43;;;;;;;18.54;93.16;100207.63;5009196;28;20046;-47
2023/08/17 01:26:25;;;;;;;22.40;8.88;;;;;;;18.67;93.40;100228.84;5023401;28;20077;-47
2023/08/17 01:28:52;;;;;;;21.70;8.10;;;;;;;18.66;93.62;100223.66;5009042;28;20478;-48
2023/08/17 01:31:27;;;;;;;22.23;9.50;;;;;;;18.49;93.69;100198.28;5009284;28;20124;-46
2023/08/17 01:33:58;;;;;;;21.17;9.75;;;;;;;18.63;94.06;100227.34;4992113;28;20045;-48
2023/08/17 01:36:32;;;;;;;25.38;10.32;;;;;;;18.61;94.18;100231.84;5025721;28;20037;-49
2023/08/17 01:38:59;;;;;;;18.15;9.93;;;;;;;18.57;94.35;100220.66;5008735;28;20044;-48
2023/08/17 01:41:26;;;;;;;36.65;10.60;;;;;;;18.46;94.69;100215.13;4994159;28;20073;-48
2023/08/17 01:43:53;;;;;;;23.77;9.48;;;;;;;18.52;95.01;100222.66;5026484;28;20045;-48
2023/08/17 01:46:19;;;;;;;28.08;9.85;;;;;;;18.53;95.04;100218.22;5024353;28;20099;-52
2023/08/17 01:48:46;;;;;;;23.05;10.20;;;;;;;18.43;95.07;100211.78;5026877;28;20467;-51
2023/08/17 01:51:21;;;;;;;23.30;10.50;;;;;;;18.52;95.40;100232.34;5022609;28;20421;-51
2023/08/17 01:53:47;;;;;;;22.38;11.05;;;;;;;18.50;95.54;100229.78;4991450;28;20103;-49
2023/08/17 01:56:14;;;;;;;28.17;11.55;;;;;;;18.51;95.69;100230.66;5039985;28;20433;-47
2023/08/17 01:58:40;;;;;;;25.63;11.68;;;;;;;18.49;95.84;100227.25;5026519;28;20107;-51
2023/08/17 02:01:05;;;;;;;21.50;11.45;;;;;;;18.51;95.91;100239.41;5024999;28;20114;-47
2023/08/17 02:03:31;;;;;;;23.65;10.98;;;;;;;18.34;95.84;100212.34;5049329;28;20478;-48
2023/08/17 02:05:58;;;;;;;21.70;11.07;;;;;;;18.47;95.97;100237.03;5025462;28;20037;-49
2023/08/17 02:08:24;;;;;;;26.55;11.38;;;;;;;18.47;96.12;100237.88;5021004;28;20697;-50
2023/08/17 02:10:53;;;;;;;22.55;11.60;;;;;;;18.48;96.33;100236.91;5027004;28;20428;-50
2023/08/17 02:13:22;;;;;;;27.73;10.95;;;;;;;18.51;96.28;100231.50;5030217;28;20060;-51
2023/08/17 02:15:49;;;;;;;29.75;11.18;;;;;;;18.53;96.37;100234.88;5029268;28;20421;-47
2023/08/17 02:18:16;;;;;;;25.63;10.80;;;;;;;18.26;96.28;100188.25;5011837;28;20080;-49
2023/08/17 02:20:42;;;;;;;26.50;11.50;;;;;;;18.58;96.28;100242.53;5031525;28;20045;-52
2023/08/17 02:23:08;;;;;;;24.75;10.52;;;;;;;18.58;96.26;100242.53;5037100;28;20103;-51
2023/08/17 02:25:35;;;;;;;28.50;10.43;;;;;;;18.44;96.05;100214.34;5030161;28;20041;-49
2023/08/17 02:28:03;;;;;;;26.33;11.77;;;;;;;18.57;96.09;100243.50;5027871;28;20045;-48
2023/08/17 02:30:29;;;;;;;21.67;11.15;;;;;;;18.58;96.28;100242.53;5005878;28;20038;-50
2023/08/17 02:32:59;;;;;;;21.90;10.18;;;;;;;18.58;96.18;100243.38;5029004;28;20204;-46
2023/08/17 02:35:25;;;;;;;25.02;11.30;;;;;;;18.37;96.10;100204.28;5027021;28;20230;-51
2023/08/17 02:37:51;;;;;;;28.27;11.15;;;;;;;18.46;96.25;100216.91;5027626;28;20908;-48
2023/08/17 02:40:18;;;;;;;25.13;10.80;;;;;;;18.63;96.36;100249.22;5030928;28;20043;-52
2023/08/17 02:42:45;;;;;;;28.98;11.18;;;;;;;18.63;96.35;100244.94;5047906;28;20048;-49
2023/08/17 02:45:11;;;;;;;22.20;11.25;;;;;;;18.61;96.55;100247.63;5029290;28;20037;-48
2023/08/17 02:47:37;;;;;;;25.35;11.00;;;;;;;18.63;96.49;100245.78;5029703;28;20045;-48
2023/08/17 02:50:03;;;;;;;25.00;10.90;;;;;;;18.59;96.76;100236.31;5012431;28;20045;-52
2023/08/17 02:52:29;;;;;;;25.40;10.65;;;;;;;18.49;96.82;100220.19;5009772;28;20095;-50
2023/08/17 02:54:55;;;;;;;23.48;10.85;;;;;;;18.50;96.80;100219.25;5028369;28;20037;-47
2023/08/17 02:57:21;;;;;;;29.00;11.27;;;;;;;18.68;96.56;100250.78;5031138;28;20037;-49
2023/08/17 02:59:47;;;;;;;24.67;11.75;;;;;;;18.44;96.77;100205.59;5010633;28;20069;-46
2023/08/17 03:02:13;;;;;;;20.52;10.98;;;;;;;18.57;96.45;100220.66;5032298;28;20095;-48
2023/08/17 03:04:39;;;;;;;27.02;11.60;;;;;;;18.79;96.49;100251.00;5021205;28;20042;-51
2023/08/17 03:07:05;;;;;;;27.17;11.48;;;;;;;18.82;96.32;100256.06;5051075;28;20064;-49
2023/08/17 03:09:31;;;;;;;24.88;10.68;;;;;;;18.85;96.08;100256.72;5052621;28;20046;-52
2023/08/17 03:11:56;;;;;;;32.58;11.65;;;;;;;18.89;95.92;100257.41;5031834;28;20068;-52
2023/08/17 03:14:23;;;;;;;25.52;11.70;;;;;;;18.91;95.72;100252.88;5027642;28;20041;-51
2023/08/17 03:16:49;;;;;;;25.02;11.00;;;;;;;18.80;95.32;100227.16;5028401;28;20037;-50
2023/08/17 03:19:15;;;;;;;21.73;11.40;;;;;;;18.97;95.62;100250.72;5023021;28;20048;-47
2023/08/17 03:21:43;;;;;;;22.15;10.48;;;;;;;19.00;95.34;100250.53;5021886;28;20425;-50
2023/08/17 03:24:10;;;;;;;25.88;11.38;;;;;;;18.89;94.95;100223.97;5023949;28;20037;-47
2023/08/17 03:26:36;;;;;;;31.55;11.10;;;;;;;19.10;94.59;100248.22;5011200;28;20047;-50
2023/08/17 03:29:02;;;;;;;20.20;10.07;;;;;;;19.15;94.04;100248.78;5010122;28;20539;-51
2023/08/17 03:31:28;;;;;;;26.23;10.50;;;;;;;19.21;93.62;100247.56;5028615;28;20073;-49
2023/08/17 03:33:55;;;;;;;22.33;10.13;;;;;;;19.26;93.25;100251.59;5006038;28;20092;-49
2023/08/17 03:36:22;;;;;;;22.65;11.07;;;;;;;19.31;92.96;100248.69;5027068;28;20037;-45
2023/08/17 03:38:48;;;;;;;24.67;10.73;;;;;;;19.36;92.92;100255.38;5053224;28;20070;-48
2023/08/17 03:41:14;;;;;;;27.35;10.43;;;;;;;19.42;92.84;100259.41;5011095;28;20041;-48
2023/08/17 03:43:40;;;;;;;20.40;10.38;;;;;;;19.48;92.55;100258.22;5011401;28;20045;-53
2023/08/17 03:46:06;;;;;;;21.38;10.20;;;;;;;19.43;91.88;100240.00;5027373;28;20060;-49
2023/08/17 03:48:33;;;;;;;18.23;9.80;;;;;;;19.57;91.55;100257.66;5008906;28;20056;-47
2023/08/17 03:51:01;;;;;;;20.10;10.05;;;;;;;19.62;91.26;100259.09;5027251;28;20472;-50
2023/08/17 03:53:27;;;;;;;21.95;9.50;;;;;;;19.53;91.02;100227.13;5025662;28;20064;-47
2023/08/17 03:55:53;;;;;;;20.52;9.90;;;;;;;19.74;90.63;100257.44;5027415;28;20033;-49
2023/08/17 03:58:19;;;;;;;21.15;10.32;;;;;;;19.78;90.06;100257.16;5025880;28;20095;-48
2023/08/17 04:00:52;;;;;;;18.77;9.95;;;;;;;19.84;89.55;100250.63;5027338;28;20041;-47
2023/08/17 04:03:23;;;;;;;;;;;;;;;19.89;89.21;100265.25;4968988;28;1529250;-48
2023/08/17 04:05:49;;;;;;;19.40;9.00;;;;;;;19.92;88.96;100258.09;5029494;28;19924;-48
2023/08/17 04:08:15;;;;;;;22.52;10.50;;;;;;;19.96;88.44;100256.94;5025155;28;20540;-53
2023/08/17 04:10:41;;;;;;;16.52;9.60;;;;;;;20.02;88.10;100253.91;5049685;28;20046;-51
2023/08/17 04:13:07;;;;;;;21.95;9.77;;;;;;;20.09;87.41;100257.84;5035979;28;20504;-52
2023/08/17 04:15:33;;;;;;;19.98;10.18;;;;;;;19.98;86.67;100231.31;5029229;28;20052;-51
2023/08/17 04:17:59;;;;;;;17.35;9.88;;;;;;;20.20;86.43;100264.13;5011742;28;20034;-51
2023/08/17 04:20:25;;;;;;;21.10;10.30;;;;;;;20.28;85.57;100263.63;5014391;28;20049;-48
2023/08/17 04:22:51;;;;;;;27.50;11.05;;;;;;;20.35;84.95;100262.34;5027041;28;20033;-46
2023/08/17 04:25:17;;;;;;;22.95;9.82;;;;;;;20.42;84.23;100268.88;5030012;28;20038;-51
2023/08/17 04:27:43;;;;;;;27.83;9.32;;;;;;;20.49;82.91;100271.97;5029391;28;20045;-47
2023/08/17 04:30:10;;;;;;;18.05;9.93;;;;;;;20.40;82.55;100241.75;5028291;28;20045;-51
2023/08/17 04:32:51;;;;;;;15.48;8.50;;;;;;;20.62;81.75;100272.88;4992406;28;20045;-52
2023/08/17 04:35:21;;;;;;;14.65;8.60;;;;;;;20.70;80.90;100278.47;5010235;28;20047;-50
2023/08/17 04:37:47;;;;;;;14.25;8.02;;;;;;;20.64;80.36;100255.97;5032211;28;20052;-50
2023/08/17 04:40:14;;;;;;;21.77;9.00;;;;;;;20.82;79.67;100267.09;5007945;28;20045;-48
2023/08/17 04:42:41;;;;;;;17.00;7.90;;;;;;;20.90;79.09;100275.34;5008279;28;20088;-53
2023/08/17 04:45:08;;;;;;;16.80;8.30;;;;;;;20.83;78.50;100244.16;5036238;28;20121;-48
2023/08/17 04:47:39;;;;;;;12.77;7.60;;;;;;;21.05;78.04;100269.00;5028122;28;20052;-50
2023/08/17 04:50:06;;;;;;;22.50;8.30;;;;;;;21.12;77.52;100275.59;5027143;28;20571;-50
2023/08/17 04:52:33;;;;;;;17.60;7.23;;;;;;;21.19;76.90;100276.06;5011699;28;20108;-50
2023/08/17 04:54:59;;;;;;;17.33;7.78;;;;;;;21.27;76.23;100276.38;5027163;28;20140;-53
2023/08/17 04:57:26;;;;;;;12.95;6.25;;;;;;;21.34;75.67;100272.34;5011754;28;20144;-53
2023/08/17 04:59:52;;;;;;;11.25;6.22;;;;;;;21.41;74.71;100276.25;5020641;28;20057;-48
2023/08/17 05:02:19;;;;;;;15.48;6.72;;;;;;;21.47;74.21;100278.47;5027754;28;20071;-51
2023/08/17 05:04:46;;;;;;;20.00;6.95;;;;;;;21.45;73.40;100258.38;5026740;28;20088;-52
2023/08/17 05:07:12;;;;;;;10.60;6.45;;;;;;;21.42;72.84;100237.41;5020062;28;20073;-49
2023/08/17 05:09:38;;;;;;;14.10;6.88;;;;;;;21.72;72.78;100282.06;5022504;28;20532;-52
2023/08/17 05:12:05;;;;;;;13.15;6.10;;;;;;;21.80;72.13;100285.00;5035327;28;20468;-51
2023/08/17 05:14:31;;;;;;;15.77;7.03;;;;;;;21.88;71.79;100285.28;5027251;28;20537;-49
2023/08/17 05:16:57;;;;;;;20.90;8.32;;;;;;;21.73;71.61;100244.88;5020821;28;20170;-51
2023/08/17 05:19:24;;;;;;;17.05;6.18;;;;;;;22.07;71.15;100288.34;5027823;28;20064;-49
2023/08/17 05:21:51;;;;;;;15.82;6.80;;;;;;;22.16;70.58;100271.78;5023975;28;20041;-50
2023/08/17 05:24:20;;;;;;;12.65;5.65;;;;;;;22.25;70.12;100267.59;5025388;28;20045;-49
2023/08/17 05:26:46;;;;;;;13.10;5.97;;;;;;;22.35;69.33;100271.25;5008119;28;20111;-52
2023/08/17 05:29:13;;;;;;;14.88;5.72;;;;;;;22.48;69.14;100280.00;5018130;28;20622;-51
2023/08/17 05:31:40;;;;;;;15.52;5.60;;;;;;;22.58;68.74;100281.03;5026505;28;20037;-52
2023/08/17 05:34:06;;;;;;;14.27;5.03;;;;;;;22.58;68.29;100262.47;5010518;28;20072;-50
2023/08/17 05:36:33;;;;;;;10.63;4.88;;;;;;;22.80;67.41;100275.00;5026227;28;20080;-54
2023/08/17 05:38:59;;;;;;;12.05;5.07;;;;;;;22.80;66.80;100259.09;5026829;28;20041;-51
2023/08/17 05:41:26;;;;;;;18.65;5.70;;;;;;;23.05;66.19;100281.91;5024122;28;20044;-52
2023/08/17 05:43:52;;;;;;;11.85;5.57;;;;;;;23.17;65.74;100281.00;5025696;28;20033;-50
2023/08/17 05:46:18;;;;;;;13.23;5.05;;;;;;;23.28;65.00;100274.84;5024207;28;20041;-52
2023/08/17 05:48:46;;;;;;;17.63;5.78;;;;;;;23.40;64.01;100281.84;5010359;28;20410;-47
2023/08/17 05:51:12;;;;;;;20.40;5.63;;;;;;;23.48;63.95;100269.72;5020845;28;20103;-52
2023/08/17 05:53:38;;;;;;;18.35;5.43;;;;;;;23.62;63.11;100280.09;5025466;28;20045;-52
2023/08/17 05:56:03;;;;;;;13.07;4.47;;;;;;;23.72;62.29;100274.03;5025253;28;20074;-49
2023/08/17 05:58:30;;;;;;;14.85;4.97;;;;;;;23.69;61.84;100250.41;5026621;28;20033;-51
2023/08/17 06:01:04;;;;;;;15.25;4.60;;;;;;;23.99;61.54;100278.00;5026790;28;20061;-51
2023/08/17 06:03:31;;;;;;;19.45;7.07;;;;;;;23.97;61.25;100257.84;5021871;28;20541;-52
2023/08/17 06:05:57;;;;;;;15.15;5.10;;;;;;;24.24;61.42;100276.03;5024131;28;20791;-51
2023/08/17 06:08:23;;;;;;;18.52;5.80;;;;;;;24.35;60.98;100279.50;5026641;28;20053;-53
2023/08/17 06:10:48;;;;;;;15.45;5.28;;;;;;;24.51;60.92;100280.91;5020638;28;20042;-54
2023/08/17 06:13:14;;;;;;;8.55;3.80;;;;;;;24.64;60.41;100271.78;5025693;28;20118;-48
2023/08/17 06:15:40;;;;;;;10.75;4.10;;;;;;;24.77;59.04;100275.09;5026678;28;20049;-54
2023/08/17 06:18:06;;;;;;;14.93;4.45;;;;;;;24.97;58.29;100269.94;5023574;28;20047;-52
2023/08/17 06:20:32;;;;;;;8.65;3.60;;;;;;;25.30;57.91;100269.72;5019871;28;20049;-53
2023/08/17 06:22:58;;;;;;;16.25;5.03;;;;;;;25.97;56.06;100275.34;5008105;28;20037;-51
2023/08/17 06:25:25;;;;;;;4.80;3.33;;;;;;;26.83;53.91;100247.09;5025359;28;20511;-50
2023/08/17 06:27:51;;;;;;;8.23;3.63;;;;;;;27.97;51.19;100270.91;4989758;28;20073;-52
2023/08/17 06:30:18;;;;;;;8.13;3.35;;;;;;;28.92;48.51;100253.31;5026779;28;20124;-50
2023/08/17 06:32:44;;;;;;;10.60;3.50;;;;;;;30.13;46.54;100274.59;5026481;28;20045;-49
2023/08/17 06:35:10;;;;;;;8.25;4.30;;;;;;;31.06;44.18;100267.16;5025089;28;20834;-51
2023/08/17 06:37:36;;;;;;;8.30;3.55;;;;;;;31.92;42.43;100251.94;5021882;28;20046;-55
2023/08/17 06:40:05;;;;;;;13.15;3.08;;;;;;;32.90;40.08;100253.97;5050378;28;20053;-53
2023/08/17 06:42:31;;;;;;;8.90;3.17;;;;;;;33.94;37.85;100270.03;5023384;28;20037;-55
2023/08/17 06:44:57;;;;;;;11.07;3.65;;;;;;;34.72;36.16;100272.78;5025776;28;20537;-55
2023/08/17 06:47:23;;;;;;;10.73;3.50;;;;;;;35.42;34.94;100257.53;5026041;28;20179;-52
2023/08/17 06:49:49;;;;;;;15.80;3.47;;;;;;;36.47;33.85;100263.38;5006050;28;20132;-54
2023/08/17 06:52:15;;;;;;;6.72;3.33;;;;;;;37.34;32.46;100277.56;5026234;28;20136;-51
2023/08/17 06:54:41;;;;;;;7.32;3.35;;;;;;;38.13;30.80;100277.34;5026812;28;20068;-53
2023/08/17 06:57:07;;;;;;;8.90;5.10;;;;;;;38.79;29.38;100276.06;5025791;28;20450;-52
2023/08/17 06:59:33;;;;;;;10.10;3.08;;;;;;;39.45;28.08;100273.63;5027029;28;20488;-53
2023/08/17 07:01:59;;;;;;;13.45;4.85;;;;;;;40.16;27.11;100276.50;5030597;28;20073;-55
2023/08/17 07:04:25;;;;;;;3.92;2.33;;;;;;;40.62;25.67;100272.31;5028610;28;20192;-54
2023/08/17 07:06:51;;;;;;;5.38;2.60;;;;;;;41.22;25.21;100278.44;5030493;28;20045;-55
2023/08/17 07:09:17;;;;;;;4.60;2.80;;;;;;;42.01;23.98;100265.97;5029262;28;20034;-51
2023/08/17 07:11:43;;;;;;;9.25;3.13;;;;;;;42.72;23.51;100280.13;5022467;28;20072;-51
2023/08/17 07:14:09;;;;;;;4.05;2.47;;;;;;;43.28;22.50;100284.59;5012532;28;20073;-55
2023/08/17 07:16:35;;;;;;;3.20;2.30;;;;;;;43.68;21.53;100271.44;5029688;28;20048;-52
2023/08/17 07:19:01;;;;;;;7.35;2.50;;;;;;;44.12;20.80;100279.66;5024803;28;20073;-55
2023/08/17 07:21:27;;;;;;;4.25;2.40;;;;;;;44.38;20.44;100278.84;5029458;28;20049;-55
2023/08/17 07:23:54;;;;;;;5.38;2.95;;;;;;;44.65;20.07;100274.16;5028773;28;20033;-55
2023/08/17 07:26:21;;;;;;;5.25;3.28;;;;;;;45.03;19.87;100270.38;5025351;28;20044;-53
2023/08/17 07:28:47;;;;;;;7.20;6.25;;;;;;;45.37;19.62;100275.50;5023603;28;20047;-56
2023/08/17 07:31:13;;;;;;;3.67;2.90;;;;;;;45.67;19.61;100275.69;5028125;28;20132;-51
2023/08/17 07:33:39;;;;;;;3.42;3.00;;;;;;;46.10;18.87;100268.97;5024484;28;20049;-54
2023/08/17 07:36:05;;;;;;;5.03;3.00;;;;;;;46.33;18.70;100273.13;5029643;28;20908;-53
2023/08/17 07:38:31;;;;;;;5.50;3.25;;;;;;;46.63;18.02;100281.44;5026895;28;20049;-51
2023/08/17 07:40:57;;;;;;;5.23;3.20;;;;;;;46.85;17.76;100261.88;5029464;28;20060;-50
2023/08/17 07:43:24;;;;;;;9.23;3.17;;;;;;;47.13;17.59;100274.25;5022075;28;20195;-56
2023/08/17 07:45:54;;;;;;;7.45;3.40;;;;;;;47.35;17.48;100262.91;5010357;28;20127;-54
2023/08/17 07:48:20;;;;;;;4.00;3.65;;;;;;;47.94;17.27;100263.78;4979182;28;20077;-57
2023/08/17 07:50:50;;;;;;;3.85;3.30;;;;;;;48.06;16.60;100268.94;5028922;28;20439;-54
2023/08/17 07:53:17;;;;;;;6.15;3.80;;;;;;;48.06;16.28;100265.34;5032042;28;20166;-58
2023/08/17 07:55:43;;;;;;;6.88;3.53;;;;;;;48.00;16.44;100261.81;5014216;28;20087;-56
2023/08/17 07:58:09;;;;;;;4.00;3.60;;;;;;;48.42;16.41;100263.22;5022509;28;20049;-57
2023/08/17 08:00:35;;;;;;;5.23;3.73;;;;;;;48.36;16.65;100266.03;5022340;28;20539;-58
2023/08/17 08:03:01;;;;;;;6.47;3.93;;;;;;;48.53;16.47;100260.06;5022832;28;20037;-55
2023/08/17 08:05:27;;;;;;;4.67;4.07;;;;;;;48.65;16.24;100259.69;5025997;28;20496;-53
2023/08/17 08:07:53;;;;;;;5.22;3.53;;;;;;;48.70;15.91;100260.50;5026111;28;20199;-55
2023/08/17 08:10:19;;;;;;;4.00;3.60;;;;;;;49.09;16.14;100268.69;5025869;28;20433;-56
2023/08/17 08:12:45;;;;;;;4.60;3.57;;;;;;;48.98;15.81;100263.53;5025272;28;20041;-57
2023/08/17 08:15:11;;;;;;;5.37;3.77;;;;;;;48.99;15.89;100257.72;5009985;28;20040;-57
2023/08/17 08:17:37;;;;;;;6.47;3.07;;;;;;;48.83;15.90;100259.00;5024829;28;20033;-55
2023/08/17 08:20:04;;;;;;;3.70;3.35;;;;;;;48.84;16.04;100260.63;5010912;28;20467;-57
2023/08/17 08:22:32;;;;;;;3.42;3.20;;;;;;;48.69;15.50;100238.66;5024377;28;20042;-56
2023/08/17 08:24:58;;;;;;;7.20;3.80;;;;;;;48.97;15.12;100250.84;5054018;28;20060;-55
2023/08/17 08:27:24;;;;;;;5.13;3.97;;;;;;;49.26;15.03;100248.88;5025524;28;20136;-56
2023/08/17 08:29:51;;;;;;;5.32;4.10;;;;;;;49.48;15.33;100248.34;5027329;28;20048;-52
2023/08/17 08:32:17;;;;;;;4.15;3.80;;;;;;;49.54;15.00;100247.16;5008145;28;20076;-55
2023/08/17 08:34:43;;;;;;;6.68;3.90;;;;;;;49.44;15.09;100244.53;5025177;28;20506;-54
2023/08/17 08:37:09;;;;;;;8.47;3.93;;;;;;;49.30;15.10;100249.94;5027131;28;20127;-54
2023/08/17 08:39:51;;;;;;;5.10;3.90;;;;;;;49.55;15.06;100244.13;5017249;28;20315;-52
2023/08/17 08:42:21;;;;;;;8.13;3.90;;;;;;;49.74;14.56;100240.53;5028834;28;20302;-55
2023/08/17 08:44:49;;;;;;;4.28;3.97;;;;;;;50.07;14.72;100249.75;5025303;28;20541;-55
2023/08/17 08:47:17;;;;;;;5.60;4.03;;;;;;;50.15;14.81;100238.84;5020222;28;20049;-52
2023/08/17 08:50:03;;;;;;;7.10;4.30;;;;;;;50.20;14.70;100243.50;5025831;28;20045;-54
2023/08/17 08:52:45;;;;;;;5.93;4.15;;;;;;;50.35;14.63;100240.50;5020741;28;20128;-56
2023/08/17 08:55:14;;;;;;;4.68;4.28;;;;;;;50.37;14.42;100246.53;5025851;28;20044;-52
2023/08/17 08:57:41;;;;;;;5.45;4.03;;;;;;;50.34;13.92;100231.38;5010716;28;20049;-49
2023/08/17 09:00:07;;;;;;;;;;;;;;;50.44;14.10;100241.47;5010331;28;20425;-54
2023/08/17 09:02:34;;;;;;;5.18;3.95;;;;;;;50.57;13.82;100220.47;5025151;28;19924;-53
2023/08/17 09:05:01;;;;;;;4.95;4.07;;;;;;;50.90;13.28;100224.84;5026908;28;20535;-51
2023/08/17 09:07:30;;;;;;;4.95;4.55;;;;;;;50.86;13.74;100223.84;5027315;28;20124;-48
2023/08/17 09:09:56;;;;;;;4.75;4.32;;;;;;;50.44;14.01;100217.38;5016811;28;20136;-49
2023/08/17 09:12:23;;;;;;;7.88;4.25;;;;;;;50.52;13.72;100217.78;5020068;28;20073;-52
2023/08/17 09:14:49;;;;;;;4.30;3.80;;;;;;;50.67;13.53;100212.00;5020177;28;20042;-49
2023/08/17 09:17:23;;;;;;;7.65;4.40;;;;;;;50.62;13.65;100198.25;5026715;28;20428;-51
2023/08/17 09:19:49;;;;;;;5.65;4.40;;;;;;;50.67;13.95;100192.59;5027872;28;20111;-54
2023/08/17 09:22:23;;;;;;;6.20;3.90;;;;;;;50.52;13.58;100220.56;5028293;28;20045;-49
2023/08/17 09:24:49;;;;;;;7.70;4.10;;;;;;;50.15;13.38;100216.72;5021712;28;20044;-53
2023/08/17 09:27:14;;;;;;;7.00;4.20;;;;;;;49.94;13.42;100218.94;5017927;28;20049;-53
2023/08/17 09:29:45;;;;;;;5.17;4.00;;;;;;;49.77;13.35;100206.78;5021924;28;20280;-51
2023/08/17 09:32:14;;;;;;;6.05;4.00;;;;;;;49.83;13.81;100214.69;5027427;28;20132;-50
2023/08/17 09:34:42;;;;;;;5.43;4.30;;;;;;;50.37;13.91;100213.31;5026790;28;20037;-50
2023/08/17 09:37:08;;;;;;;8.10;4.20;;;;;;;50.54;13.53;100198.94;5024080;28;20804;-53
2023/08/17 09:39:34;;;;;;;5.53;4.07;;;;;;;50.59;13.22;100205.19;5026530;28;20043;-53
2023/08/17 09:42:00;;;;;;;4.55;4.15;;;;;;;50.78;13.19;100214.28;5027907;28;20567;-54
2023/08/17 09:44:26;;;;;;;5.10;4.50;;;;;;;50.75;13.02;100192.69;5022023;28;20071;-51
2023/08/17 09:46:56;;;;;;;5.22;4.43;;;;;;;50.71;13.29;100204.72;5024525;28;20114;-54
2023/08/17 09:49:25;;;;;;;5.55;4.57;;;;;;;50.89;12.80;100203.00;5025894;28;20398;-49
2023/08/17 09:51:53;;;;;;;7.97;4.40;;;;;;;50.66;12.81;100177.09;5026163;28;20037;-50
2023/08/17 09:54:26;;;;;;;5.53;4.82;;;;;;;51.11;12.99;100214.19;5026905;28;20069;-52
2023/08/17 09:56:53;;;;;;;6.15;4.88;;;;;;;51.39;13.34;100213.06;5020309;28;20607;-51
2023/08/17 09:59:20;;;;;;;6.53;4.90;;;;;;;51.31;13.00;100196.31;4991018;28;20128;-52
2023/08/17 10:01:49;;;;;;;4.75;4.35;;;;;;;51.22;12.79;100204.56;5005833;28;20041;-52
2023/08/17 10:04:24;;;;;;;6.93;5.70;;;;;;;51.17;12.78;100205.50;5016409;28;20050;-49
2023/08/17 10:07:04;;;;;;;5.05;4.60;;;;;;;51.22;13.06;100204.56;5025148;28;20616;-54
2023/08/17 10:09:38;;;;;;;5.70;5.20;;;;;;;51.15;12.77;100206.91;5026564;28;20056;-51
2023/08/17 10:12:11;;;;;;;5.72;4.75;;;;;;;51.01;12.77;100203.31;5023844;28;20049;-55
2023/08/17 10:14:41;;;;;;;5.18;4.60;;;;;;;51.12;12.78;100211.16;5010128;28;20053;-52
2023/08/17 10:17:15;;;;;;;5.45;4.95;;;;;;;51.17;13.08;100196.34;5027373;28;20056;-51
2023/08/17 10:19:51;;;;;;;7.63;5.05;;;;;;;51.17;12.61;100186.09;5024755;28;20128;-49
2023/08/17 10:22:27;;;;;;;5.53;5.03;;;;;;;50.78;13.02;100194.88;5048078;28;20038;-50
2023/08/17 10:24:54;;;;;;;11.65;5.20;;;;;;;50.91;13.16;100184.94;5020275;28;20037;-51
2023/08/17 10:27:21;;;;;;;6.97;4.70;;;;;;;51.05;13.44;100193.25;5009377;28;20131;-52
2023/08/17 10:29:47;;;;;;;5.10;4.70;;;;;;;51.06;13.36;100190.16;5009086;28;20459;-52
2023/08/17 10:32:13;;;;;;;5.32;4.90;;;;;;;51.06;13.05;100190.16;5027183;28;20148;-52
2023/08/17 10:34:41;;;;;;;5.82;4.68;;;;;;;50.97;13.32;100192.03;5030692;28;20131;-55
2023/08/17 10:37:07;;;;;;;8.93;4.97;;;;;;;50.82;13.60;100192.34;5058458;28;20420;-52
2023/08/17 10:39:34;;;;;;;9.25;6.70;;;;;;;50.95;13.48;100185.13;4996756;28;20041;-55
2023/08/17 10:42:01;;;;;;;5.22;4.55;;;;;;;50.98;13.28;100193.69;5028744;28;20048;-52
2023/08/17 10:44:45;;;;;;;5.35;4.90;;;;;;;50.78;13.09;100183.81;5025263;28;20563;-51
2023/08/17 10:47:29;;;;;;;11.50;6.65;;;;;;;50.49;13.43;100183.22;5029383;28;20049;-55
2023/08/17 10:50:22;;;;;;;6.57;4.93;;;;;;;50.47;13.28;100176.34;5022411;28;20428;-57
2023/08/17 10:52:49;;;;;;;5.15;4.65;;;;;;;50.03;13.88;100153.53;5025650;28;20463;-49
2023/08/17 10:55:15;;;;;;;7.97;4.90;;;;;;;49.93;14.02;100173.06;5023634;28;20486;-50
2023/08/17 10:57:41;;;;;;;5.43;4.93;;;;;;;50.00;13.73;100165.19;5040707;28;20129;-56
2023/08/17 11:00:27;;;;;;;6.75;4.78;;;;;;;50.20;14.00;100171.56;5011894;28;20045;-56
2023/08/17 11:02:55;;;;;;;9.38;4.60;;;;;;;50.73;13.77;100172.78;5021806;28;20064;-56
2023/08/17 11:05:43;;;;;;;5.03;4.57;;;;;;;50.64;13.22;100168.28;5021636;28;20046;-50
2023/08/17 11:08:14;;;;;;;6.05;4.43;;;;;;;50.23;13.21;100157.09;5026612;28;20095;-55
2023/08/17 11:10:40;;;;;;;6.40;4.55;;;;;;;49.91;13.55;100161.47;5028135;28;20057;-53
2023/08/17 11:13:07;;;;;;;4.70;4.10;;;;;;;49.78;13.72;100161.44;5026087;28;20068;-52
2023/08/17 11:15:44;;;;;;;5.03;4.20;;;;;;;49.50;13.83;100125.31;5027404;28;20051;-54
2023/08/17 11:18:14;;;;;;;5.20;4.20;;;;;;;50.12;13.60;100148.16;5028089;28;20099;-55
2023/08/17 11:20:41;;;;;;;4.82;4.30;;;;;;;50.49;13.72;100151.94;5010174;28;20061;-54